sensor_id;sensor_type;location;lat;lon;timestamp;pressure;altitude;pressure_sealevel;temperature;humidity
55759;BME280;41678;52.126;20.664;2023-07-29T00:03:10;99557.69;;;17.21;78.48
55759;BME280;41678;52.126;20.664;2023-07-29T00:08:30;99558.88;;;17.16;78.62
55759;BME280;41678;52.126;20.664;2023-07-29T00:13:49;99572.94;;;17.18;78.53
55759;BME280;41678;52.126;20.664;2023-07-29T00:19:10;99571.22;;;17.17;78.15
55759;BME280;41678;52.126;20.664;2023-07-29T00:24:29;99580.00;;;17.19;78.13
55759;BME280;41678;52.126;20.664;2023-07-29T00:29:49;99579.50;;;17.10;78.26
55759;BME280;41678;52.126;20.664;2023-07-29T00:35:09;99581.22;;;17.11;78.13
55759;BME280;41678;52.126;20.664;2023-07-29T00:40:30;99591.00;;;17.11;78.22
55759;BME280;41678;52.126;20.664;2023-07-29T00:45:50;99588.63;;;17.05;78.06
55759;BME280;41678;52.126;20.664;2023-07-29T00:51:10;99571.41;;;16.94;77.98
55759;BME280;41678;52.126;20.664;2023-07-29T00:56:30;99582.63;;;17.01;78.13
55759;BME280;41678;52.126;20.664;2023-07-29T01:01:49;99590.03;;;16.94;78.16
55759;BME280;41678;52.126;20.664;2023-07-29T01:12:53;99593.47;;;16.96;78.05
55759;BME280;41678;52.126;20.664;2023-07-29T01:18:22;99585.94;;;16.87;78.03
55759;BME280;41678;52.126;20.664;2023-07-29T01:23:42;99592.13;;;16.88;78.06
55759;BME280;41678;52.126;20.664;2023-07-29T01:29:03;99599.16;;;16.89;78.31
55759;BME280;41678;52.126;20.664;2023-07-29T01:34:26;99597.59;;;16.84;78.35
55759;BME280;41678;52.126;20.664;2023-07-29T01:39:49;99592.56;;;16.78;78.43
55759;BME280;41678;52.126;20.664;2023-07-29T01:45:10;99606.78;;;16.77;78.45
55759;BME280;41678;52.126;20.664;2023-07-29T01:50:29;99614.97;;;16.73;78.49
55759;BME280;41678;52.126;20.664;2023-07-29T01:55:51;99619.59;;;16.69;78.06
55759;BME280;41678;52.126;20.664;2023-07-29T02:01:10;99610.47;;;16.55;77.99
55759;BME280;41678;52.126;20.664;2023-07-29T02:06:30;99616.72;;;16.54;77.95
55759;BME280;41678;52.126;20.664;2023-07-29T02:11:50;99626.47;;;16.54;78.59
55759;BME280;41678;52.126;20.664;2023-07-29T02:17:09;99620.75;;;16.44;78.35
55759;BME280;41678;52.126;20.664;2023-07-29T02:22:29;99623.59;;;16.39;78.61
55759;BME280;41678;52.126;20.664;2023-07-29T02:27:48;99628.06;;;16.39;78.48
55759;BME280;41678;52.126;20.664;2023-07-29T02:33:08;99631.53;;;16.41;78.45
55759;BME280;41678;52.126;20.664;2023-07-29T02:38:27;99644.50;;;16.47;78.44
55759;BME280;41678;52.126;20.664;2023-07-29T02:43:48;99640.28;;;16.43;78.62
55759;BME280;41678;52.126;20.664;2023-07-29T02:49:08;99636.03;;;16.39;78.66
55759;BME280;41678;52.126;20.664;2023-07-29T02:54:28;99648.03;;;16.48;78.77
55759;BME280;41678;52.126;20.664;2023-07-29T02:59:48;99659.50;;;16.48;79.15
55759;BME280;41678;52.126;20.664;2023-07-29T03:05:08;99652.97;;;16.36;79.07
55759;BME280;41678;52.126;20.664;2023-07-29T03:10:28;99664.34;;;16.40;79.01
55759;BME280;41678;52.126;20.664;2023-07-29T03:15:47;99659.13;;;16.37;78.86
55759;BME280;41678;52.126;20.664;2023-07-29T03:21:08;99676.16;;;16.33;79.11
55759;BME280;41678;52.126;20.664;2023-07-29T03:26:27;99666.66;;;16.27;78.97
55759;BME280;41678;52.126;20.664;2023-07-29T03:31:47;99672.72;;;16.31;78.99
55759;BME280;41678;52.126;20.664;2023-07-29T03:37:07;99673.69;;;16.28;79.15
55759;BME280;41678;52.126;20.664;2023-07-29T03:42:27;99670.53;;;16.20;79.12
55759;BME280;41678;52.126;20.664;2023-07-29T03:47:46;99674.97;;;16.19;78.96
55759;BME280;41678;52.126;20.664;2023-07-29T03:53:06;99669.66;;;16.19;78.92
55759;BME280;41678;52.126;20.664;2023-07-29T03:58:25;99683.88;;;16.18;78.69
55759;BME280;41678;52.126;20.664;2023-07-29T04:03:46;99690.22;;;16.16;78.73
55759;BME280;41678;52.126;20.664;2023-07-29T04:09:05;99696.09;;;16.22;78.67
55759;BME280;41678;52.126;20.664;2023-07-29T04:14:25;99704.72;;;16.27;78.92
55759;BME280;41678;52.126;20.664;2023-07-29T04:19:45;99700.50;;;16.23;78.68
55759;BME280;41678;52.126;20.664;2023-07-29T04:25:05;99714.13;;;16.35;79.27
55759;BME280;41678;52.126;20.664;2023-07-29T04:30:25;99716.78;;;16.35;79.24
55759;BME280;41678;52.126;20.664;2023-07-29T04:35:45;99717.47;;;16.40;79.34
55759;BME280;41678;52.126;20.664;2023-07-29T04:41:05;99720.97;;;16.40;79.19
55759;BME280;41678;52.126;20.664;2023-07-29T04:46:26;99732.19;;;16.47;79.10
55759;BME280;41678;52.126;20.664;2023-07-29T04:51:45;99723.13;;;16.51;79.59
55759;BME280;41678;52.126;20.664;2023-07-29T04:57:05;99730.31;;;16.49;79.57
55759;BME280;41678;52.126;20.664;2023-07-29T05:02:25;99737.25;;;16.53;81.14
55759;BME280;41678;52.126;20.664;2023-07-29T05:07:45;99744.13;;;16.57;79.92
55759;BME280;41678;52.126;20.664;2023-07-29T05:13:04;99744.97;;;16.58;80.56
55759;BME280;41678;52.126;20.664;2023-07-29T05:18:24;99749.00;;;16.67;80.29
55759;BME280;41678;52.126;20.664;2023-07-29T05:23:44;99750.41;;;16.76;80.24
55759;BME280;41678;52.126;20.664;2023-07-29T05:29:03;99752.19;;;16.75;80.06
55759;BME280;41678;52.126;20.664;2023-07-29T05:34:23;99747.63;;;16.79;80.25
55759;BME280;41678;52.126;20.664;2023-07-29T05:39:43;99743.28;;;16.76;80.26
55759;BME280;41678;52.126;20.664;2023-07-29T05:45:03;99753.28;;;16.90;80.26
55759;BME280;41678;52.126;20.664;2023-07-29T05:50:23;99748.88;;;16.89;80.18
55759;BME280;41678;52.126;20.664;2023-07-29T05:55:42;99751.13;;;16.98;80.31
55759;BME280;41678;52.126;20.664;2023-07-29T06:01:03;99749.88;;;17.07;80.82
55759;BME280;41678;52.126;20.664;2023-07-29T06:06:22;99755.13;;;17.09;80.61
55759;BME280;41678;52.126;20.664;2023-07-29T06:11:42;99773.66;;;17.10;80.44
55759;BME280;41678;52.126;20.664;2023-07-29T06:17:02;99784.06;;;17.15;79.98
55759;BME280;41678;52.126;20.664;2023-07-29T06:28:09;99790.41;;;17.12;79.88
55759;BME280;41678;52.126;20.664;2023-07-29T06:33:29;99789.19;;;17.20;79.60
55759;BME280;41678;52.126;20.664;2023-07-29T06:38:48;99797.94;;;17.22;79.50
55759;BME280;41678;52.126;20.664;2023-07-29T06:44:07;99784.66;;;17.22;79.51
55759;BME280;41678;52.126;20.664;2023-07-29T06:49:27;99802.53;;;17.37;79.59
55759;BME280;41678;52.126;20.664;2023-07-29T06:54:47;99795.19;;;17.42;79.88
55759;BME280;41678;52.126;20.664;2023-07-29T07:00:07;99801.03;;;17.51;79.85
55759;BME280;41678;52.126;20.664;2023-07-29T07:05:29;99798.41;;;17.68;79.90
55759;BME280;41678;52.126;20.664;2023-07-29T07:10:50;99794.25;;;17.80;80.12
55759;BME280;41678;52.126;20.664;2023-07-29T07:16:10;99777.84;;;17.90;80.39
55759;BME280;41678;52.126;20.664;2023-07-29T07:21:33;99777.72;;;18.10;79.91
55759;BME280;41678;52.126;20.664;2023-07-29T07:26:53;99765.31;;;18.27;79.79
55759;BME280;41678;52.126;20.664;2023-07-29T07:32:12;99792.25;;;18.56;79.67
55759;BME280;41678;52.126;20.664;2023-07-29T07:37:32;99784.38;;;18.71;79.89
55759;BME280;41678;52.126;20.664;2023-07-29T07:42:54;99780.03;;;18.86;79.97
55759;BME280;41678;52.126;20.664;2023-07-29T07:48:14;99774.47;;;18.90;79.96
55759;BME280;41678;52.126;20.664;2023-07-29T07:53:39;99779.81;;;19.06;80.15
55759;BME280;41678;52.126;20.664;2023-07-29T07:58:59;99783.13;;;19.28;79.94
55759;BME280;41678;52.126;20.664;2023-07-29T08:04:19;99767.63;;;19.34;79.87
55759;BME280;41678;52.126;20.664;2023-07-29T08:15:40;99756.56;;;19.73;79.35
55759;BME280;41678;52.126;20.664;2023-07-29T08:28:35;99748.38;;;20.06;79.41
55759;BME280;41678;52.126;20.664;2023-07-29T08:33:57;99771.41;;;20.23;79.12
55759;BME280;41678;52.126;20.664;2023-07-29T08:39:17;99747.56;;;20.20;79.09
55759;BME280;41678;52.126;20.664;2023-07-29T08:44:43;99773.84;;;20.57;78.49
55759;BME280;41678;52.126;20.664;2023-07-29T08:50:04;99755.50;;;20.65;78.70
55759;BME280;41678;52.126;20.664;2023-07-29T08:55:24;99755.63;;;20.78;78.61
55759;BME280;41678;52.126;20.664;2023-07-29T09:00:45;99731.81;;;20.74;78.33
55759;BME280;41678;52.126;20.664;2023-07-29T09:06:07;99743.97;;;20.94;78.09
55759;BME280;41678;52.126;20.664;2023-07-29T09:11:27;99742.06;;;20.96;77.24
55759;BME280;41678;52.126;20.664;2023-07-29T09:16:47;99735.06;;;21.08;76.79
55759;BME280;41678;52.126;20.664;2023-07-29T09:22:19;99754.31;;;21.28;75.41
55759;BME280;41678;52.126;20.664;2023-07-29T09:27:40;99732.03;;;21.27;76.53
55759;BME280;41678;52.126;20.664;2023-07-29T09:33:00;99741.63;;;21.44;76.07
55759;BME280;41678;52.126;20.664;2023-07-29T09:38:27;99749.94;;;21.54;75.51
55759;BME280;41678;52.126;20.664;2023-07-29T09:43:47;99744.91;;;21.62;74.98
55759;BME280;41678;52.126;20.664;2023-07-29T09:49:07;99730.38;;;21.67;74.75
55759;BME280;41678;52.126;20.664;2023-07-29T09:55:00;99738.34;;;21.81;73.65
55759;BME280;41678;52.126;20.664;2023-07-29T10:06:45;99722.72;;;21.88;74.28
55759;BME280;41678;52.126;20.664;2023-07-29T10:12:06;99727.34;;;21.99;74.07
55759;BME280;41678;52.126;20.664;2023-07-29T10:17:26;99708.34;;;21.89;74.64
55759;BME280;41678;52.126;20.664;2023-07-29T10:22:47;99737.66;;;22.05;74.31
55759;BME280;41678;52.126;20.664;2023-07-29T10:28:08;99721.88;;;22.00;74.01
55759;BME280;41678;52.126;20.664;2023-07-29T10:33:28;99713.75;;;22.02;72.81
55759;BME280;41678;52.126;20.664;2023-07-29T10:38:48;99712.13;;;21.99;72.77
55759;BME280;41678;52.126;20.664;2023-07-29T10:44:28;99717.84;;;22.07;73.24
55759;BME280;41678;52.126;20.664;2023-07-29T10:49:57;99700.31;;;21.89;73.05
55759;BME280;41678;52.126;20.664;2023-07-29T10:55:32;99698.72;;;21.86;73.61
55759;BME280;41678;52.126;20.664;2023-07-29T11:00:52;99697.84;;;21.99;73.22
55759;BME280;41678;52.126;20.664;2023-07-29T11:06:12;99705.28;;;22.08;73.54
55759;BME280;41678;52.126;20.664;2023-07-29T11:11:32;99692.53;;;22.12;72.82
55759;BME280;41678;52.126;20.664;2023-07-29T11:16:53;99682.22;;;22.18;72.15
55759;BME280;41678;52.126;20.664;2023-07-29T11:22:13;99683.09;;;22.32;71.60
55759;BME280;41678;52.126;20.664;2023-07-29T11:27:36;99670.84;;;22.28;72.10
55759;BME280;41678;52.126;20.664;2023-07-29T11:32:56;99666.44;;;22.40;71.35
55759;BME280;41678;52.126;20.664;2023-07-29T11:38:19;99658.28;;;22.41;72.03
55759;BME280;41678;52.126;20.664;2023-07-29T11:43:40;99635.44;;;22.35;72.17
55759;BME280;41678;52.126;20.664;2023-07-29T11:49:00;99657.66;;;22.50;72.13
55759;BME280;41678;52.126;20.664;2023-07-29T11:54:20;99642.97;;;22.56;71.81
55759;BME280;41678;52.126;20.664;2023-07-29T11:59:41;99635.88;;;22.55;71.53
55759;BME280;41678;52.126;20.664;2023-07-29T12:05:03;99642.28;;;22.66;71.42
55759;BME280;41678;52.126;20.664;2023-07-29T12:10:24;99634.13;;;22.67;71.16
55759;BME280;41678;52.126;20.664;2023-07-29T12:15:45;99629.81;;;22.77;71.43
55759;BME280;41678;52.126;20.664;2023-07-29T12:21:05;99622.50;;;22.80;71.77
55759;BME280;41678;52.126;20.664;2023-07-29T12:26:28;99603.38;;;22.84;71.86
55759;BME280;41678;52.126;20.664;2023-07-29T12:31:49;99612.34;;;22.96;71.43
55759;BME280;41678;52.126;20.664;2023-07-29T12:37:16;99615.09;;;23.08;70.56
55759;BME280;41678;52.126;20.664;2023-07-29T12:42:36;99601.53;;;23.09;70.98
55759;BME280;41678;52.126;20.664;2023-07-29T12:47:56;99604.94;;;23.11;71.14
55759;BME280;41678;52.126;20.664;2023-07-29T12:53:16;99591.47;;;23.24;70.03
55759;BME280;41678;52.126;20.664;2023-07-29T12:58:37;99591.66;;;23.34;70.54
55759;BME280;41678;52.126;20.664;2023-07-29T13:03:57;99581.53;;;23.38;70.39
55759;BME280;41678;52.126;20.664;2023-07-29T13:09:18;99584.72;;;23.43;70.37
55759;BME280;41678;52.126;20.664;2023-07-29T13:14:38;99591.22;;;23.52;69.69
55759;BME280;41678;52.126;20.664;2023-07-29T13:19:58;99578.66;;;23.52;69.74
55759;BME280;41678;52.126;20.664;2023-07-29T13:25:18;99555.94;;;23.56;69.84
55759;BME280;41678;52.126;20.664;2023-07-29T13:30:41;99556.94;;;23.67;69.24
55759;BME280;41678;52.126;20.664;2023-07-29T13:36:02;99552.06;;;23.72;69.70
55759;BME280;41678;52.126;20.664;2023-07-29T13:41:22;99550.97;;;23.74;69.67
55759;BME280;41678;52.126;20.664;2023-07-29T13:46:42;99554.97;;;23.80;69.57
55759;BME280;41678;52.126;20.664;2023-07-29T13:52:03;99535.94;;;23.83;69.40
55759;BME280;41678;52.126;20.664;2023-07-29T13:57:23;99546.09;;;23.91;69.37
55759;BME280;41678;52.126;20.664;2023-07-29T14:02:43;99537.88;;;23.92;69.72
55759;BME280;41678;52.126;20.664;2023-07-29T14:08:04;99518.34;;;23.90;69.46
55759;BME280;41678;52.126;20.664;2023-07-29T14:13:24;99534.97;;;24.07;69.87
55759;BME280;41678;52.126;20.664;2023-07-29T14:18:44;99518.34;;;24.02;69.08
55759;BME280;41678;52.126;20.664;2023-07-29T14:24:03;99515.75;;;24.00;67.77
55759;BME280;41678;52.126;20.664;2023-07-29T14:29:23;99514.94;;;24.11;68.93
55759;BME280;41678;52.126;20.664;2023-07-29T14:34:43;99513.47;;;24.07;68.04
55759;BME280;41678;52.126;20.664;2023-07-29T14:40:03;99507.34;;;24.05;67.88
55759;BME280;41678;52.126;20.664;2023-07-29T14:45:23;99496.81;;;24.02;68.23
55759;BME280;41678;52.126;20.664;2023-07-29T14:50:42;99507.59;;;24.13;68.51
55759;BME280;41678;52.126;20.664;2023-07-29T14:56:03;99496.59;;;24.05;68.24
55759;BME280;41678;52.126;20.664;2023-07-29T15:01:23;99494.91;;;24.04;67.40
55759;BME280;41678;52.126;20.664;2023-07-29T15:06:43;99489.78;;;24.12;66.96
55759;BME280;41678;52.126;20.664;2023-07-29T15:12:03;99481.44;;;24.15;67.25
55759;BME280;41678;52.126;20.664;2023-07-29T15:17:24;99477.25;;;24.23;68.65
55759;BME280;41678;52.126;20.664;2023-07-29T15:22:44;99481.44;;;24.27;67.86
55759;BME280;41678;52.126;20.664;2023-07-29T15:28:04;99471.63;;;24.26;68.84
55759;BME280;41678;52.126;20.664;2023-07-29T15:33:24;99474.91;;;24.29;69.21
55759;BME280;41678;52.126;20.664;2023-07-29T15:38:44;99501.44;;;24.34;67.78
55759;BME280;41678;52.126;20.664;2023-07-29T15:44:04;99474.81;;;24.19;66.72
55759;BME280;41678;52.126;20.664;2023-07-29T15:49:24;99480.44;;;24.28;67.42
55759;BME280;41678;52.126;20.664;2023-07-29T15:54:45;99483.84;;;24.30;67.79
55759;BME280;41678;52.126;20.664;2023-07-29T16:00:05;99467.00;;;24.28;67.74
55759;BME280;41678;52.126;20.664;2023-07-29T16:05:31;99457.94;;;24.29;67.04
55759;BME280;41678;52.126;20.664;2023-07-29T16:10:51;99447.19;;;24.29;67.41
55759;BME280;41678;52.126;20.664;2023-07-29T16:16:11;99444.25;;;24.32;67.89
55759;BME280;41678;52.126;20.664;2023-07-29T16:21:32;99457.66;;;24.43;67.58
55759;BME280;41678;52.126;20.664;2023-07-29T16:26:52;99449.44;;;24.45;68.03
55759;BME280;41678;52.126;20.664;2023-07-29T16:32:17;99437.34;;;24.39;68.15
55759;BME280;41678;52.126;20.664;2023-07-29T16:37:38;99435.66;;;24.38;68.83
55759;BME280;41678;52.126;20.664;2023-07-29T16:42:59;99436.50;;;24.39;68.65
55759;BME280;41678;52.126;20.664;2023-07-29T16:48:22;99429.81;;;24.33;67.83
55759;BME280;41678;52.126;20.664;2023-07-29T16:53:45;99419.31;;;24.30;68.13
55759;BME280;41678;52.126;20.664;2023-07-29T16:59:06;99412.72;;;24.23;68.22
55759;BME280;41678;52.126;20.664;2023-07-29T17:04:27;99421.50;;;24.25;68.09
55759;BME280;41678;52.126;20.664;2023-07-29T17:09:49;99430.91;;;24.30;68.00
55759;BME280;41678;52.126;20.664;2023-07-29T17:15:12;99424.47;;;24.22;68.44
55759;BME280;41678;52.126;20.664;2023-07-29T17:20:36;99408.34;;;24.10;68.55
55759;BME280;41678;52.126;20.664;2023-07-29T17:25:58;99393.06;;;23.99;68.68
55759;BME280;41678;52.126;20.664;2023-07-29T17:31:19;99393.72;;;23.91;68.33
55759;BME280;41678;52.126;20.664;2023-07-29T17:36:40;99380.78;;;23.85;68.52
55759;BME280;41678;52.126;20.664;2023-07-29T17:42:00;99384.81;;;23.80;68.47
55759;BME280;41678;52.126;20.664;2023-07-29T17:47:26;99375.44;;;23.74;68.55
55759;BME280;41678;52.126;20.664;2023-07-29T17:52:46;99379.72;;;23.65;68.46
55759;BME280;41678;52.126;20.664;2023-07-29T17:58:27;99403.03;;;23.76;69.22
55759;BME280;41678;52.126;20.664;2023-07-29T18:03:47;99377.66;;;23.57;69.06
55759;BME280;41678;52.126;20.664;2023-07-29T18:09:07;99397.19;;;23.59;69.21
55759;BME280;41678;52.126;20.664;2023-07-29T18:14:34;99377.91;;;23.43;69.32
55759;BME280;41678;52.126;20.664;2023-07-29T18:19:54;99382.41;;;23.42;69.14
55759;BME280;41678;52.126;20.664;2023-07-29T18:25:14;99392.06;;;23.33;69.34
55759;BME280;41678;52.126;20.664;2023-07-29T18:30:35;99382.13;;;23.23;69.55
55759;BME280;41678;52.126;20.664;2023-07-29T18:35:57;99388.00;;;23.16;69.16
55759;BME280;41678;52.126;20.664;2023-07-29T18:41:37;99388.72;;;23.07;69.69
55759;BME280;41678;52.126;20.664;2023-07-29T18:47:06;99414.72;;;23.06;69.66
55759;BME280;41678;52.126;20.664;2023-07-29T18:52:27;99422.16;;;23.03;69.46
55759;BME280;41678;52.126;20.664;2023-07-29T18:57:46;99409.44;;;22.93;69.71
55759;BME280;41678;52.126;20.664;2023-07-29T19:03:07;99404.22;;;22.92;69.86
55759;BME280;41678;52.126;20.664;2023-07-29T19:08:26;99399.53;;;22.83;69.91
55759;BME280;41678;52.126;20.664;2023-07-29T19:13:46;99388.53;;;22.74;69.99
55759;BME280;41678;52.126;20.664;2023-07-29T19:19:06;99378.28;;;22.68;69.94
55759;BME280;41678;52.126;20.664;2023-07-29T19:24:25;99390.34;;;22.62;70.28
55759;BME280;41678;52.126;20.664;2023-07-29T19:29:45;99371.91;;;22.58;70.26
55759;BME280;41678;52.126;20.664;2023-07-29T19:35:06;99367.03;;;22.52;70.42
55759;BME280;41678;52.126;20.664;2023-07-29T19:40:26;99364.66;;;22.47;70.28
55759;BME280;41678;52.126;20.664;2023-07-29T19:45:48;99350.22;;;22.36;70.97
55759;BME280;41678;52.126;20.664;2023-07-29T19:51:07;99351.56;;;22.31;71.15
55759;BME280;41678;52.126;20.664;2023-07-29T19:56:27;99363.47;;;22.27;71.46
55759;BME280;41678;52.126;20.664;2023-07-29T20:01:46;99365.19;;;22.28;71.41
55759;BME280;41678;52.126;20.664;2023-07-29T20:07:06;99374.34;;;22.25;71.53
55759;BME280;41678;52.126;20.664;2023-07-29T20:12:25;99360.19;;;22.23;72.14
55759;BME280;41678;52.126;20.664;2023-07-29T20:17:44;99366.88;;;22.17;72.54
55759;BME280;41678;52.126;20.664;2023-07-29T20:23:04;99350.16;;;22.14;72.33
55759;BME280;41678;52.126;20.664;2023-07-29T20:28:25;99356.59;;;22.11;72.63
55759;BME280;41678;52.126;20.664;2023-07-29T20:33:45;99379.00;;;22.10;72.21
55759;BME280;41678;52.126;20.664;2023-07-29T20:39:04;99413.97;;;22.08;72.71
55759;BME280;41678;52.126;20.664;2023-07-29T20:44:27;99427.66;;;22.17;72.10
55759;BME280;41678;52.126;20.664;2023-07-29T20:49:46;99457.88;;;22.19;71.58
55759;BME280;41678;52.126;20.664;2023-07-29T20:55:07;99486.63;;;22.17;71.65
55759;BME280;41678;52.126;20.664;2023-07-29T21:00:27;99490.84;;;22.08;72.37
55759;BME280;41678;52.126;20.664;2023-07-29T21:05:48;99498.78;;;21.97;72.97
55759;BME280;41678;52.126;20.664;2023-07-29T21:11:09;99505.06;;;21.84;73.22
55759;BME280;41678;52.126;20.664;2023-07-29T21:16:29;99530.25;;;21.69;73.41
55759;BME280;41678;52.126;20.664;2023-07-29T21:21:48;99528.28;;;21.58;73.76
55759;BME280;41678;52.126;20.664;2023-07-29T21:27:08;99535.56;;;21.43;73.77
55759;BME280;41678;52.126;20.664;2023-07-29T21:32:27;99527.41;;;21.31;74.12
55759;BME280;41678;52.126;20.664;2023-07-29T21:37:47;99528.81;;;21.24;74.25
55759;BME280;41678;52.126;20.664;2023-07-29T21:43:07;99533.06;;;21.14;74.47
55759;BME280;41678;52.126;20.664;2023-07-29T21:48:27;99537.00;;;21.08;74.78
55759;BME280;41678;52.126;20.664;2023-07-29T21:53:47;99521.47;;;21.00;75.15
55759;BME280;41678;52.126;20.664;2023-07-29T21:59:07;99492.47;;;20.94;75.37
55759;BME280;41678;52.126;20.664;2023-07-29T22:04:27;99480.56;;;20.85;75.56
55759;BME280;41678;52.126;20.664;2023-07-29T22:09:46;99471.72;;;20.70;75.71
55759;BME280;41678;52.126;20.664;2023-07-29T22:15:06;99459.81;;;20.61;75.74
55759;BME280;41678;52.126;20.664;2023-07-29T22:20:26;99443.84;;;20.47;75.93
55759;BME280;41678;52.126;20.664;2023-07-29T22:25:56;99418.22;;;20.30;76.00
55759;BME280;41678;52.126;20.664;2023-07-29T22:31:17;99446.84;;;20.28;76.57
55759;BME280;41678;52.126;20.664;2023-07-29T22:36:37;99439.75;;;20.14;75.57
55759;BME280;41678;52.126;20.664;2023-07-29T22:41:56;99412.78;;;20.04;75.69
55759;BME280;41678;52.126;20.664;2023-07-29T22:47:15;99393.41;;;20.00;76.46
55759;BME280;41678;52.126;20.664;2023-07-29T22:52:35;99390.94;;;19.97;77.27
55759;BME280;41678;52.126;20.664;2023-07-29T22:57:54;99388.09;;;19.86;77.94
55759;BME280;41678;52.126;20.664;2023-07-29T23:03:14;99392.38;;;19.88;76.78
55759;BME280;41678;52.126;20.664;2023-07-29T23:08:34;99382.28;;;19.79;77.71
55759;BME280;41678;52.126;20.664;2023-07-29T23:13:54;99409.44;;;19.86;76.80
55759;BME280;41678;52.126;20.664;2023-07-29T23:19:13;99427.69;;;19.79;76.63
55759;BME280;41678;52.126;20.664;2023-07-29T23:24:32;99441.59;;;19.70;76.93
55759;BME280;41678;52.126;20.664;2023-07-29T23:29:52;99436.66;;;19.63;76.63
55759;BME280;41678;52.126;20.664;2023-07-29T23:35:12;99433.22;;;19.61;76.37
55759;BME280;41678;52.126;20.664;2023-07-29T23:40:31;99443.91;;;19.61;76.16
55759;BME280;41678;52.126;20.664;2023-07-29T23:45:50;99433.59;;;19.55;76.67
55759;BME280;41678;52.126;20.664;2023-07-29T23:51:10;99429.97;;;19.56;76.60
55759;BME280;41678;52.126;20.664;2023-07-29T23:56:29;99427.69;;;19.50;76.65
